Time;durP1;ratioP1;P1;durP2;ratioP2;P2;SDS_P1;SDS_P2;PMS_P1;PMS_P2;Temp;Humidity;BMP_temperature;BMP_pressure;BME280_temperature;BME280_humidity;BME280_pressure;Samples;Min_cycle;Max_cycle;Signal;HPM_P1;HPM_P2
2023/01/21 00:01:59;;;;;;;43.67;18.83;;;;;;;;;;5002240;28;20443;-70
2023/01/21 00:04:25;;;;;;;41.38;17.77;;;;;;;;;;5023456;28;20038;-70
2023/01/21 00:06:51;;;;;;;41.05;18.42;;;;;;;;;;5025334;28;20498;-70
2023/01/21 00:09:17;;;;;;;44.97;18.00;;;;;;;;;;5007422;28;20040;-70
2023/01/21 00:11:43;;;;;;;47.83;19.05;;;;;;;;;;5030332;28;20037;-69
2023/01/21 00:14:10;;;;;;;43.97;17.65;;;;;;;;;;5016063;28;20034;-70
2023/01/21 00:16:36;;;;;;;41.90;17.23;;;;;;;;;;5018627;28;20042;-70
2023/01/21 00:19:02;;;;;;;44.20;16.50;;;;;;;;;;5023419;28;20569;-70
2023/01/21 00:21:28;;;;;;;37.95;16.52;;;;;;;;;;5021688;28;20033;-70
2023/01/21 00:23:54;;;;;;;35.70;17.25;;;;;;;;;;5026006;28;20051;-70
2023/01/21 00:26:20;;;;;;;42.00;17.15;;;;;;;;;;5029643;28;20063;-69
2023/01/21 00:28:46;;;;;;;46.30;19.17;;;;;;;;;;5029281;28;20049;-69
2023/01/21 00:31:12;;;;;;;45.78;18.98;;;;;;;;;;5023445;28;20041;-69
2023/01/21 00:33:38;;;;;;;47.17;19.40;;;;;;;;;;5028266;28;20090;-69
2023/01/21 00:36:06;;;;;;;45.25;17.83;;;;;;;;;;5030193;28;20037;-69
2023/01/21 00:38:32;;;;;;;43.15;17.70;;;;;;;;;;5028631;28;20037;-69
2023/01/21 00:41:05;;;;;;;33.85;16.35;;;;;;;;;;5028393;28;20030;-70
2023/01/21 00:43:31;;;;;;;42.70;17.45;;;;;;;;;;5025262;28;20061;-70
2023/01/21 00:45:57;;;;;;;42.45;18.73;;;;;;;;;;5025497;28;20057;-69
2023/01/21 00:48:23;;;;;;;39.50;17.35;;;;;;;;;;5026628;28;20037;-70
2023/01/21 00:50:50;;;;;;;38.92;17.63;;;;;;;;;;5023388;28;20044;-69
2023/01/21 00:53:17;;;;;;;44.80;19.23;;;;;;;;;;5022926;28;20060;-70
2023/01/21 00:55:43;;;;;;;40.15;17.80;;;;;;;;;;5013736;28;20502;-70
2023/01/21 00:58:09;;;;;;;47.38;18.67;;;;;;;;;;5019385;28;20116;-69
2023/01/21 01:00:35;;;;;;;51.00;21.55;;;;;;;;;;5030217;28;20117;-69
2023/01/21 01:03:01;;;;;;;42.38;18.95;;;;;;;;;;5021166;28;20061;-69
2023/01/21 01:05:27;;;;;;;46.15;19.90;;;;;;;;;;5013012;28;20453;-69
2023/01/21 01:07:53;;;;;;;52.13;21.02;;;;;;;;;;5028331;28;20052;-69
2023/01/21 01:10:19;;;;;;;51.72;19.67;;;;;;;;;;5017813;28;20061;-69
2023/01/21 01:12:45;;;;;;;55.67;22.45;;;;;;;;;;5014900;28;20033;-69
2023/01/21 01:15:11;;;;;;;56.50;22.08;;;;;;;;;;5019690;28;20108;-69
2023/01/21 01:17:37;;;;;;;51.20;20.83;;;;;;;;;;5015688;28;20045;-69
2023/01/21 01:20:04;;;;;;;49.30;19.10;;;;;;;;;;5018558;28;20092;-69
2023/01/21 01:22:30;;;;;;;52.65;22.27;;;;;;;;;;5020207;28;20113;-69
2023/01/21 01:24:56;;;;;;;56.67;21.27;;;;;;;;;;5026141;28;20124;-69
2023/01/21 01:27:21;;;;;;;54.60;22.25;;;;;;;;;;5018341;28;20056;-69
2023/01/21 01:29:48;;;;;;;59.53;22.95;;;;;;;;;;5037357;28;20041;-70
2023/01/21 01:32:14;;;;;;;55.40;21.60;;;;;;;;;;5028468;28;20129;-69
2023/01/21 01:34:40;;;;;;;55.58;22.40;;;;;;;;;;5024334;28;20051;-69
2023/01/21 01:37:06;;;;;;;58.40;23.10;;;;;;;;;;5030715;28;20064;-69
2023/01/21 01:39:32;;;;;;;61.42;22.60;;;;;;;;;;5031092;28;20479;-69
2023/01/21 01:41:58;;;;;;;53.08;21.02;;;;;;;;;;5022637;28;20099;-69
2023/01/21 01:44:42;;;;;;;56.08;22.40;;;;;;;;;;5018707;28;20479;-69
2023/01/21 01:47:09;;;;;;;46.63;17.42;;;;;;;;;;5025132;28;20049;-69
2023/01/21 01:49:35;;;;;;;54.55;22.08;;;;;;;;;;5018904;28;20081;-69
2023/01/21 01:52:02;;;;;;;64.63;23.95;;;;;;;;;;5024384;28;20094;-69
2023/01/21 01:54:31;;;;;;;66.72;24.25;;;;;;;;;;5027937;28;20684;-69
2023/01/21 01:56:59;;;;;;;55.45;22.40;;;;;;;;;;5012763;28;20069;-69
2023/01/21 01:59:25;;;;;;;51.90;21.20;;;;;;;;;;5021172;28;20041;-69
2023/01/21 02:01:52;;;;;;;61.30;22.88;;;;;;;;;;5012523;28;20042;-69
2023/01/21 02:04:20;;;;;;;60.35;23.15;;;;;;;;;;5020949;28;20057;-69
2023/01/21 02:06:47;;;;;;;69.00;24.92;;;;;;;;;;5022221;28;20570;-69
2023/01/21 02:09:13;;;;;;;69.95;25.52;;;;;;;;;;5019125;28;20041;-69
2023/01/21 02:11:39;;;;;;;61.15;23.00;;;;;;;;;;5020349;28;20181;-69
2023/01/21 02:14:05;;;;;;;61.00;25.33;;;;;;;;;;5030907;28;20037;-69
2023/01/21 02:16:45;;;;;;;65.75;24.40;;;;;;;;;;5023842;28;20036;-69
2023/01/21 02:19:28;;;;;;;56.30;23.38;;;;;;;;;;5019139;28;20034;-69
2023/01/21 02:21:54;;;;;;;63.22;24.42;;;;;;;;;;5013945;28;20056;-69
2023/01/21 02:24:23;;;;;;;65.97;23.95;;;;;;;;;;5019642;28;20514;-69
2023/01/21 02:27:15;;;;;;;61.75;24.08;;;;;;;;;;5021273;28;20107;-69
2023/01/21 02:29:57;;;;;;;50.40;19.92;;;;;;;;;;5009105;28;20042;-69
2023/01/21 02:32:42;;;;;;;67.72;20.83;;;;;;;;;;5024434;28;20499;-69
2023/01/21 02:35:16;;;;;;;67.70;21.17;;;;;;;;;;5016632;28;20076;-69
2023/01/21 02:37:53;;;;;;;75.15;22.63;;;;;;;;;;5019435;28;20038;-69
2023/01/21 02:40:28;;;;;;;98.25;21.60;;;;;;;;;;5023305;28;20037;-69
2023/01/21 02:42:57;;;;;;;77.40;23.50;;;;;;;;;;5026309;28;20040;-70
2023/01/21 02:45:29;;;;;;;50.35;19.98;;;;;;;;;;5017905;28;20041;-70
2023/01/21 02:48:04;;;;;;;61.80;21.83;;;;;;;;;;5024125;28;20044;-69
2023/01/21 02:50:33;;;;;;;73.45;20.67;;;;;;;;;;5025507;28;20053;-69
2023/01/21 02:53:00;;;;;;;69.13;21.80;;;;;;;;;;5018698;28;20426;-69
2023/01/21 02:55:28;;;;;;;67.30;21.50;;;;;;;;;;5011882;28;20046;-69
2023/01/21 02:57:57;;;;;;;54.00;19.92;;;;;;;;;;5040743;22;20052;-63
2023/01/21 03:00:26;;;;;;;55.90;19.90;;;;;;;;;;5049012;28;20040;-62
2023/01/21 03:03:22;;;;;;;63.40;23.58;;;;;;;;;;5046376;28;20039;-63
2023/01/21 03:06:01;;;;;;;68.10;22.40;;;;;;;;;;5038153;28;20044;-63
2023/01/21 03:08:32;;;;;;;65.95;21.83;;;;;;;;;;5050381;28;20029;-63
2023/01/21 03:11:01;;;;;;;73.65;23.05;;;;;;;;;;5050926;28;20041;-63
2023/01/21 03:19:16;;;;;;;61.33;22.52;;;;;;;;;;4974403;28;20039;-63
2023/01/21 03:21:43;;;;;;;72.30;22.75;;;;;;;;;;5035566;28;20048;-63
2023/01/21 03:24:10;;;;;;;67.68;20.42;;;;;;;;;;5049743;28;20532;-63
2023/01/21 03:26:39;;;;;;;78.75;22.88;;;;;;;;;;5050011;28;20041;-63
2023/01/21 03:29:15;;;;;;;69.13;23.05;;;;;;;;;;5047379;28;20104;-63
2023/01/21 03:31:43;;;;;;;78.00;19.85;;;;;;;;;;5054348;28;20073;-64
2023/01/21 03:34:11;;;;;;;79.30;23.33;;;;;;;;;;5052248;28;20041;-64
2023/01/21 03:36:57;;;;;;;66.78;22.38;;;;;;;;;;5054796;28;20120;-63
2023/01/21 03:39:35;;;;;;;63.42;23.60;;;;;;;;;;5053369;28;20033;-64
2023/01/21 03:42:01;;;;;;;66.60;24.70;;;;;;;;;;5053904;28;20037;-63
2023/01/21 03:44:28;;;;;;;70.28;26.23;;;;;;;;;;5049650;28;20044;-64
2023/01/21 03:46:58;;;;;;;70.57;26.85;;;;;;;;;;5052922;28;20041;-64
2023/01/21 03:49:27;;;;;;;72.18;24.55;;;;;;;;;;5053092;28;20518;-64
2023/01/21 03:51:55;;;;;;;80.18;27.98;;;;;;;;;;5050379;28;20072;-64
2023/01/21 03:54:21;;;;;;;77.80;26.52;;;;;;;;;;5053579;28;20037;-64
2023/01/21 03:56:47;;;;;;;80.25;26.92;;;;;;;;;;5053511;28;20041;-63
2023/01/21 03:59:13;;;;;;;78.30;27.48;;;;;;;;;;5053532;28;20064;-64
2023/01/21 04:01:40;;;;;;;85.18;28.05;;;;;;;;;;5053966;28;20037;-64
2023/01/21 04:04:06;;;;;;;83.10;28.70;;;;;;;;;;5050632;28;20041;-63
2023/01/21 04:06:32;;;;;;;78.10;28.23;;;;;;;;;;5052429;28;20128;-64
2023/01/21 04:08:58;;;;;;;81.35;28.02;;;;;;;;;;5054163;28;20495;-64
2023/01/21 04:11:24;;;;;;;79.88;27.48;;;;;;;;;;5053020;28;20036;-64
2023/01/21 04:13:50;;;;;;;80.45;26.98;;;;;;;;;;5053604;28;20048;-63
2023/01/21 04:16:16;;;;;;;78.97;26.50;;;;;;;;;;5054185;28;20122;-64
2023/01/21 04:18:42;;;;;;;75.15;27.33;;;;;;;;;;5052400;28;20390;-64
2023/01/21 04:21:08;;;;;;;74.97;25.30;;;;;;;;;;5054451;28;20044;-64
2023/01/21 04:23:34;;;;;;;80.75;28.63;;;;;;;;;;5051334;28;20441;-64
2023/01/21 04:26:00;;;;;;;75.97;26.92;;;;;;;;;;5053494;28;20076;-64
2023/01/21 04:28:26;;;;;;;75.00;26.67;;;;;;;;;;5051839;28;21584;-64
2023/01/21 04:30:52;;;;;;;74.55;25.65;;;;;;;;;;5053788;28;20120;-64
2023/01/21 04:33:18;;;;;;;68.65;25.77;;;;;;;;;;5050432;28;20043;-64
2023/01/21 04:35:44;;;;;;;75.35;25.92;;;;;;;;;;5051144;28;20044;-64
2023/01/21 04:38:10;;;;;;;73.30;25.15;;;;;;;;;;5052561;28;20033;-64
2023/01/21 04:40:36;;;;;;;70.78;24.65;;;;;;;;;;5052308;28;20039;-64
2023/01/21 04:43:02;;;;;;;68.07;25.50;;;;;;;;;;5052165;28;20037;-63
2023/01/21 04:45:28;;;;;;;73.03;25.48;;;;;;;;;;5052426;28;20036;-64
2023/01/21 04:47:54;;;;;;;68.35;24.63;;;;;;;;;;5052037;28;20537;-63
2023/01/21 04:50:20;;;;;;;69.63;25.30;;;;;;;;;;5051979;28;20127;-63
2023/01/21 04:52:46;;;;;;;76.70;25.17;;;;;;;;;;5051583;28;20457;-63
2023/01/21 04:55:12;;;;;;;74.10;26.52;;;;;;;;;;5053554;28;20033;-64
2023/01/21 04:57:38;;;;;;;70.63;24.75;;;;;;;;;;5050135;28;20040;-64
2023/01/21 05:00:05;;;;;;;70.43;25.38;;;;;;;;;;5053363;28;20089;-63
2023/01/21 05:02:32;;;;;;;69.55;26.10;;;;;;;;;;5048172;28;20048;-63
2023/01/21 05:04:58;;;;;;;66.97;24.70;;;;;;;;;;5052042;28;20147;-64
2023/01/21 05:07:24;;;;;;;61.50;24.38;;;;;;;;;;5051660;28;20167;-64
2023/01/21 05:09:50;;;;;;;71.38;24.83;;;;;;;;;;5051155;28;20044;-64
2023/01/21 05:12:16;;;;;;;64.60;25.90;;;;;;;;;;5050037;28;20040;-64
2023/01/21 05:14:42;;;;;;;69.82;25.73;;;;;;;;;;5048543;28;20036;-64
2023/01/21 05:17:08;;;;;;;67.30;24.80;;;;;;;;;;5040507;28;20037;-64
2023/01/21 05:19:34;;;;;;;72.25;24.35;;;;;;;;;;5048797;28;20441;-63
2023/01/21 05:22:00;;;;;;;66.25;23.85;;;;;;;;;;5048253;28;20552;-63
2023/01/21 05:24:26;;;;;;;72.07;25.40;;;;;;;;;;5050065;28;20501;-64
2023/01/21 05:26:52;;;;;;;62.72;23.85;;;;;;;;;;5051698;28;20055;-64
2023/01/21 05:29:18;;;;;;;66.00;24.10;;;;;;;;;;5041781;28;20040;-63
2023/01/21 05:31:44;;;;;;;62.40;23.05;;;;;;;;;;5051272;28;21799;-63
2023/01/21 05:34:10;;;;;;;65.60;23.67;;;;;;;;;;5050201;28;20041;-63
2023/01/21 05:36:36;;;;;;;62.67;23.88;;;;;;;;;;5051792;28;20517;-64
2023/01/21 05:39:02;;;;;;;62.05;22.88;;;;;;;;;;5050003;28;20428;-63
2023/01/21 05:41:29;;;;;;;59.92;23.73;;;;;;;;;;5050597;28;20033;-64
2023/01/21 05:43:55;;;;;;;60.88;24.38;;;;;;;;;;5050988;28;20095;-63
2023/01/21 05:46:21;;;;;;;61.45;23.23;;;;;;;;;;5052788;28;20041;-63
2023/01/21 05:48:47;;;;;;;58.22;22.35;;;;;;;;;;5050535;28;20033;-64
2023/01/21 05:51:13;;;;;;;62.90;24.50;;;;;;;;;;5051090;28;20482;-63
2023/01/21 05:53:39;;;;;;;64.93;23.60;;;;;;;;;;5051239;28;20041;-63
2023/01/21 05:56:05;;;;;;;58.05;21.48;;;;;;;;;;5051795;28;20527;-63
2023/01/21 05:58:31;;;;;;;59.10;22.40;;;;;;;;;;5049789;28;20124;-64
2023/01/21 06:00:57;;;;;;;67.13;25.55;;;;;;;;;;5052318;28;20515;-63
2023/01/21 06:03:23;;;;;;;59.80;23.23;;;;;;;;;;5051115;28;20034;-63
2023/01/21 06:05:50;;;;;;;57.55;22.27;;;;;;;;;;5050292;28;20063;-63
2023/01/21 06:08:16;;;;;;;59.03;23.23;;;;;;;;;;5050253;28;20045;-64
2023/01/21 06:10:42;;;;;;;62.22;24.75;;;;;;;;;;5051873;28;20033;-64
2023/01/21 06:13:10;;;;;;;59.88;21.90;;;;;;;;;;5048803;28;20060;-65
2023/01/21 06:15:36;;;;;;;67.70;25.23;;;;;;;;;;5052200;28;20171;-63
2023/01/21 06:18:02;;;;;;;71.53;24.02;;;;;;;;;;5047922;28;20402;-63
2023/01/21 06:20:29;;;;;;;69.40;25.27;;;;;;;;;;5049999;28;20048;-63
2023/01/21 06:22:55;;;;;;;68.28;24.20;;;;;;;;;;5049452;28;20051;-63
2023/01/21 06:25:21;;;;;;;59.00;24.45;;;;;;;;;;5050938;28;20112;-63
2023/01/21 06:27:47;;;;;;;68.47;25.67;;;;;;;;;;5049503;28;20037;-63
2023/01/21 06:30:13;;;;;;;68.18;25.88;;;;;;;;;;5051203;28;20045;-63
2023/01/21 06:32:39;;;;;;;61.30;23.15;;;;;;;;;;5050402;28;20033;-64
2023/01/21 06:35:06;;;;;;;69.25;24.60;;;;;;;;;;5050728;28;20123;-63
2023/01/21 06:37:31;;;;;;;69.72;25.45;;;;;;;;;;5050556;28;20126;-63
2023/01/21 06:39:57;;;;;;;65.38;24.55;;;;;;;;;;5051151;28;20048;-63
2023/01/21 06:42:23;;;;;;;66.93;25.48;;;;;;;;;;5048574;28;20376;-63
2023/01/21 06:44:49;;;;;;;70.43;25.45;;;;;;;;;;5050765;28;20067;-63
2023/01/21 06:47:15;;;;;;;67.55;24.33;;;;;;;;;;5050969;28;20052;-63
2023/01/21 06:49:42;;;;;;;73.85;25.90;;;;;;;;;;5048948;28;20068;-64
2023/01/21 06:52:08;;;;;;;65.28;23.65;;;;;;;;;;5051356;28;20445;-64
2023/01/21 06:54:34;;;;;;;69.35;23.83;;;;;;;;;;5049983;28;20041;-64
2023/01/21 06:57:01;;;;;;;70.70;25.00;;;;;;;;;;5049817;28;20041;-64
2023/01/21 06:59:27;;;;;;;69.55;24.67;;;;;;;;;;5049003;28;20757;-63
2023/01/21 07:01:53;;;;;;;68.00;23.98;;;;;;;;;;5049320;28;20136;-63
2023/01/21 07:04:20;;;;;;;73.38;24.90;;;;;;;;;;5047150;28;21761;-64
2023/01/21 07:06:46;;;;;;;68.22;24.40;;;;;;;;;;5057308;28;20045;-64
2023/01/21 07:09:12;;;;;;;66.82;24.80;;;;;;;;;;5053328;28;20033;-64
2023/01/21 07:11:37;;;;;;;68.28;25.75;;;;;;;;;;5054339;28;20491;-63
2023/01/21 07:14:03;;;;;;;69.40;25.05;;;;;;;;;;5054074;28;20095;-64
2023/01/21 07:16:29;;;;;;;70.32;26.23;;;;;;;;;;5053724;28;20035;-63
2023/01/21 07:18:55;;;;;;;76.15;24.48;;;;;;;;;;5054562;28;20056;-63
2023/01/21 07:21:23;;;;;;;68.95;26.05;;;;;;;;;;5054485;28;20541;-63
2023/01/21 07:23:51;;;;;;;72.63;25.05;;;;;;;;;;5054201;28;20510;-64
2023/01/21 07:26:17;;;;;;;67.35;23.55;;;;;;;;;;5053981;28;20071;-64
2023/01/21 07:28:43;;;;;;;62.92;24.38;;;;;;;;;;5053971;28;20124;-64
2023/01/21 07:31:10;;;;;;;69.85;24.92;;;;;;;;;;5055189;28;20453;-64
2023/01/21 07:33:35;;;;;;;70.25;25.58;;;;;;;;;;5053877;28;20048;-64
2023/01/21 07:36:02;;;;;;;65.07;24.33;;;;;;;;;;5053696;28;20086;-64
2023/01/21 07:38:27;;;;;;;64.22;23.25;;;;;;;;;;5056185;28;20029;-64
2023/01/21 07:40:53;;;;;;;67.55;23.73;;;;;;;;;;5054057;28;20528;-64
2023/01/21 07:43:19;;;;;;;63.92;23.55;;;;;;;;;;5056961;28;20033;-64
2023/01/21 07:45:46;;;;;;;67.38;24.38;;;;;;;;;;5051971;28;20041;-64
2023/01/21 07:48:12;;;;;;;65.15;23.67;;;;;;;;;;5053369;28;20033;-64
2023/01/21 07:50:38;;;;;;;61.97;23.67;;;;;;;;;;5062911;28;20064;-64
2023/01/21 07:53:04;;;;;;;73.13;29.88;;;;;;;;;;5066571;28;20072;-64
2023/01/21 07:55:30;;;;;;;71.55;25.83;;;;;;;;;;5053628;28;20117;-64
2023/01/21 07:57:56;;;;;;;64.72;23.98;;;;;;;;;;5052350;28;20116;-63
2023/01/21 08:00:23;;;;;;;67.97;23.45;;;;;;;;;;5053338;28;20043;-63
2023/01/21 08:02:53;;;;;;;63.50;22.80;;;;;;;;;;5052619;28;20530;-64
2023/01/21 08:05:19;;;;;;;67.32;23.90;;;;;;;;;;5051495;28;20063;-63
2023/01/21 08:07:45;;;;;;;67.45;26.40;;;;;;;;;;5053436;28;20040;-63
2023/01/21 08:10:11;;;;;;;64.90;26.13;;;;;;;;;;5053704;28;20456;-63
2023/01/21 08:12:37;;;;;;;67.15;24.58;;;;;;;;;;5052780;28;20097;-63
2023/01/21 08:15:03;;;;;;;64.97;23.27;;;;;;;;;;5053588;28;20053;-64
2023/01/21 08:17:29;;;;;;;61.95;22.73;;;;;;;;;;5052894;28;20045;-63
2023/01/21 08:19:55;;;;;;;71.03;25.33;;;;;;;;;;5053076;28;20045;-63
2023/01/21 08:22:22;;;;;;;69.22;23.90;;;;;;;;;;5053938;28;20068;-64
2023/01/21 08:24:48;;;;;;;66.35;24.00;;;;;;;;;;5054477;28;20048;-63
2023/01/21 08:27:13;;;;;;;61.25;22.58;;;;;;;;;;5053075;28;20033;-64
2023/01/21 08:29:39;;;;;;;65.38;22.70;;;;;;;;;;5053542;28;20040;-64
2023/01/21 08:32:05;;;;;;;63.70;23.77;;;;;;;;;;5053720;28;20183;-64
2023/01/21 08:34:32;;;;;;;63.78;23.67;;;;;;;;;;5052720;28;20483;-63
2023/01/21 08:36:58;;;;;;;63.67;22.60;;;;;;;;;;5050658;28;20033;-64
2023/01/21 08:39:24;;;;;;;64.70;23.55;;;;;;;;;;5051080;28;20036;-63
2023/01/21 08:41:50;;;;;;;64.57;24.42;;;;;;;;;;5051346;28;20036;-63
2023/01/21 08:44:16;;;;;;;62.17;23.60;;;;;;;;;;5049506;28;20139;-63
2023/01/21 08:46:42;;;;;;;66.88;23.33;;;;;;;;;;5050992;28;20546;-64
2023/01/21 08:49:08;;;;;;;62.85;23.35;;;;;;;;;;5050070;28;20041;-63
2023/01/21 08:51:34;;;;;;;58.88;22.48;;;;;;;;;;5048964;28;20518;-64
2023/01/21 08:54:00;;;;;;;57.15;23.50;;;;;;;;;;5051538;28;20090;-63
2023/01/21 08:56:26;;;;;;;56.00;21.63;;;;;;;;;;5051865;28;20041;-63
2023/01/21 08:58:56;;;;;;;58.25;21.90;;;;;;;;;;5073399;22;20666;-71
2023/01/21 09:01:23;;;;;;;59.10;21.70;;;;;;;;;;5070132;28;20094;-72
2023/01/21 09:03:49;;;;;;;57.60;20.33;;;;;;;;;;5066511;28;20478;-71
2023/01/21 09:06:15;;;;;;;64.90;21.90;;;;;;;;;;5066834;28;20044;-72
2023/01/21 09:08:41;;;;;;;57.30;21.65;;;;;;;;;;5070035;28;20568;-72
2023/01/21 09:11:08;;;;;;;59.50;20.38;;;;;;;;;;5070884;28;20036;-72
2023/01/21 09:13:36;;;;;;;56.35;21.23;;;;;;;;;;5064365;28;20513;-72
2023/01/21 09:16:03;;;;;;;55.35;20.80;;;;;;;;;;5061475;28;20041;-72
2023/01/21 09:18:29;;;;;;;59.78;20.77;;;;;;;;;;5066285;28;20764;-72
2023/01/21 09:20:59;;;;;;;53.30;20.92;;;;;;;;;;5062327;28;20089;-72
2023/01/21 09:23:26;;;;;;;55.78;20.95;;;;;;;;;;5065127;28;20522;-72
2023/01/21 09:25:53;;;;;;;59.17;22.35;;;;;;;;;;5062930;28;20044;-72
2023/01/21 09:28:19;;;;;;;59.42;21.55;;;;;;;;;;5069046;28;20107;-72
2023/01/21 09:30:45;;;;;;;55.10;20.20;;;;;;;;;;5070213;28;20040;-72
2023/01/21 09:33:12;;;;;;;52.42;20.35;;;;;;;;;;5066562;28;20036;-71
2023/01/21 09:35:38;;;;;;;55.13;20.52;;;;;;;;;;5064952;28;20427;-72
2023/01/21 09:38:04;;;;;;;54.70;20.73;;;;;;;;;;5064087;28;20036;-71
2023/01/21 09:40:30;;;;;;;56.15;22.27;;;;;;;;;;5062570;28;20052;-71
2023/01/21 09:42:56;;;;;;;60.95;21.92;;;;;;;;;;5060990;28;20043;-71
2023/01/21 09:45:23;;;;;;;52.55;19.98;;;;;;;;;;5060928;28;20051;-70
2023/01/21 09:47:49;;;;;;;55.50;21.83;;;;;;;;;;5065447;28;20410;-70
2023/01/21 09:50:17;;;;;;;53.10;20.98;;;;;;;;;;5069767;28;20032;-70
2023/01/21 09:52:44;;;;;;;52.03;21.48;;;;;;;;;;5066470;28;20090;-70
2023/01/21 09:55:27;;;;;;;52.80;20.98;;;;;;;;;;5066649;28;20124;-70
2023/01/21 09:58:04;;;;;;;48.45;19.92;;;;;;;;;;5053936;28;20535;-71
2023/01/21 10:00:33;;;;;;;55.63;20.65;;;;;;;;;;5050937;28;20465;-70
2023/01/21 10:03:11;;;;;;;49.38;19.75;;;;;;;;;;5050428;28;20047;-70
2023/01/21 10:05:41;;;;;;;43.65;18.50;;;;;;;;;;5050789;28;20124;-70
2023/01/21 10:08:13;;;;;;;52.33;18.58;;;;;;;;;;5049834;28;20041;-70
2023/01/21 10:10:46;;;;;;;47.67;18.17;;;;;;;;;;5052404;28;20041;-70
2023/01/21 10:13:37;;;;;;;44.30;18.02;;;;;;;;;;5058061;28;20041;-69
2023/01/21 10:16:09;;;;;;;48.08;18.70;;;;;;;;;;5051914;28;20073;-69
2023/01/21 10:18:37;;;;;;;45.05;17.88;;;;;;;;;;5051837;28;20098;-69
2023/01/21 10:21:06;;;;;;;48.92;20.15;;;;;;;;;;5051929;28;20075;-69
2023/01/21 10:23:37;;;;;;;49.15;19.92;;;;;;;;;;5051911;28;20041;-68
2023/01/21 10:26:03;;;;;;;;;;;;;;;;;;5056686;28;20130;-69
2023/01/21 10:28:30;;;;;;;49.42;19.65;;;;;;;;;;5071295;28;20352;-68
2023/01/21 10:31:25;;;;;;;45.53;18.85;;;;;;;;;;5057300;28;20032;-68
2023/01/21 10:33:51;;;;;;;52.47;20.00;;;;;;;;;;5048326;28;20052;-68
2023/01/21 10:36:36;;;;;;;52.88;18.83;;;;;;;;;;5052069;28;20080;-68
2023/01/21 10:39:17;;;;;;;46.40;18.27;;;;;;;;;;5051671;28;20041;-68
2023/01/21 10:41:49;;;;;;;45.63;18.85;;;;;;;;;;5057939;28;20041;-68
2023/01/21 10:44:25;;;;;;;51.10;18.75;;;;;;;;;;5065237;28;20090;-67
2023/01/21 10:47:00;;;;;;;47.72;19.25;;;;;;;;;;5071505;28;20040;-68
2023/01/21 10:49:26;;;;;;;48.90;19.73;;;;;;;;;;5071076;28;20506;-68
2023/01/21 10:51:58;;;;;;;49.03;20.30;;;;;;;;;;5068702;28;20044;-68
2023/01/21 10:54:24;;;;;;;46.63;18.42;;;;;;;;;;5066411;28;20094;-68
2023/01/21 10:56:59;;;;;;;49.97;18.42;;;;;;;;;;5062017;28;20037;-67
2023/01/21 10:59:28;;;;;;;48.45;19.13;;;;;;;;;;5056514;28;20041;-67
2023/01/21 11:02:10;;;;;;;47.45;19.52;;;;;;;;;;5051682;28;20191;-67
2023/01/21 11:04:36;;;;;;;52.40;19.98;;;;;;;;;;5051460;28;20051;-66
2023/01/21 11:07:04;;;;;;;53.50;21.63;;;;;;;;;;5059740;28;20036;-66
2023/01/21 11:09:35;;;;;;;44.35;18.42;;;;;;;;;;5050983;28;20051;-66
2023/01/21 11:12:01;;;;;;;49.97;20.88;;;;;;;;;;5065217;28;20661;-66
2023/01/21 11:14:27;;;;;;;45.00;19.00;;;;;;;;;;5032946;28;20128;-67
2023/01/21 11:16:54;;;;;;;45.33;19.65;;;;;;;;;;5051912;28;20068;-67
2023/01/21 11:19:29;;;;;;;52.70;21.45;;;;;;;;;;5055171;28;20036;-67
2023/01/21 11:22:03;;;;;;;46.92;19.80;;;;;;;;;;5062667;28;20049;-67
2023/01/21 11:24:31;;;;;;;49.53;20.35;;;;;;;;;;5071114;28;20491;-67
2023/01/21 11:27:01;;;;;;;45.17;20.23;;;;;;;;;;5061692;28;20449;-67
2023/01/21 11:29:37;;;;;;;49.20;19.33;;;;;;;;;;5055930;28;20123;-67
2023/01/21 11:32:16;;;;;;;45.33;19.17;;;;;;;;;;5050823;28;20044;-67
2023/01/21 11:34:48;;;;;;;44.75;19.42;;;;;;;;;;5062690;28;20045;-67
2023/01/21 11:37:27;;;;;;;45.08;19.15;;;;;;;;;;5064723;28;20036;-67
2023/01/21 11:39:58;;;;;;;44.85;18.27;;;;;;;;;;5067320;28;20044;-67
2023/01/21 11:42:24;;;;;;;43.92;19.20;;;;;;;;;;5059445;28;20083;-67
2023/01/21 11:44:57;;;;;;;33.88;15.30;;;;;;;;;;5050504;28;20045;-67
2023/01/21 11:47:34;;;;;;;39.33;17.02;;;;;;;;;;5050838;28;20448;-67
2023/01/21 11:50:02;;;;;;;32.20;16.50;;;;;;;;;;5063784;28;20119;-67
2023/01/21 11:52:28;;;;;;;39.00;16.80;;;;;;;;;;5069349;28;20316;-67
2023/01/21 11:54:54;;;;;;;33.88;15.50;;;;;;;;;;5070975;28;20044;-67
2023/01/21 11:57:31;;;;;;;32.08;15.00;;;;;;;;;;5062912;28;20033;-67
2023/01/21 11:59:59;;;;;;;36.13;16.83;;;;;;;;;;5054410;28;20506;-68
2023/01/21 12:02:34;;;;;;;34.42;15.57;;;;;;;;;;5054786;28;20136;-67
2023/01/21 12:05:11;;;;;;;31.80;15.52;;;;;;;;;;5065664;28;20040;-67
2023/01/21 12:07:39;;;;;;;32.88;16.02;;;;;;;;;;5074823;28;20093;-67
2023/01/21 12:10:19;;;;;;;35.42;16.08;;;;;;;;;;5073680;28;20044;-67
2023/01/21 12:12:48;;;;;;;30.38;15.15;;;;;;;;;;5065565;28;20090;-68
2023/01/21 12:15:34;;;;;;;36.22;16.65;;;;;;;;;;5074146;28;20525;-67
2023/01/21 12:18:03;;;;;;;33.08;15.32;;;;;;;;;;5059100;28;20044;-67
2023/01/21 12:20:32;;;;;;;37.70;17.40;;;;;;;;;;5062197;28;20460;-68
2023/01/21 12:22:58;;;;;;;33.75;15.85;;;;;;;;;;5054223;28;20037;-67
2023/01/21 12:25:37;;;;;;;34.15;16.25;;;;;;;;;;5066992;28;20037;-68
2023/01/21 12:28:18;;;;;;;34.47;17.20;;;;;;;;;;5061397;28;20052;-67
2023/01/21 12:30:55;;;;;;;36.05;16.95;;;;;;;;;;5035883;28;20537;-67
2023/01/21 12:33:36;;;;;;;36.63;17.02;;;;;;;;;;5062742;28;20122;-67
2023/01/21 12:36:02;;;;;;;;;;;;;;;;;;5073824;28;20063;-67
2023/01/21 12:38:32;;;;;;;33.33;16.50;;;;;;;;;;5073770;28;20381;-67
2023/01/21 12:41:04;;;;;;;33.47;16.73;;;;;;;;;;5062364;28;20090;-67
2023/01/21 12:43:30;;;;;;;35.72;17.13;;;;;;;;;;5053926;28;20037;-67
2023/01/21 12:46:01;;;;;;;34.40;16.42;;;;;;;;;;5053513;28;20041;-68
2023/01/21 12:48:35;;;;;;;32.05;15.27;;;;;;;;;;5062080;28;20443;-67
2023/01/21 12:51:03;;;;;;;31.05;16.23;;;;;;;;;;5073188;28;20170;-68
2023/01/21 12:53:34;;;;;;;33.67;18.10;;;;;;;;;;5071757;28;20390;-68
2023/01/21 12:56:23;;;;;;;32.97;16.60;;;;;;;;;;5062028;28;20033;-68
2023/01/21 12:58:51;;;;;;;37.95;15.95;;;;;;;;;;5053585;28;20057;-68
2023/01/21 13:01:30;;;;;;;30.08;14.55;;;;;;;;;;5056753;28;20036;-68
2023/01/21 13:03:59;;;;;;;30.42;15.32;;;;;;;;;;5063678;28;20040;-68
2023/01/21 13:06:28;;;;;;;29.88;14.32;;;;;;;;;;5073609;28;20076;-68
2023/01/21 13:09:04;;;;;;;22.08;12.20;;;;;;;;;;5070164;28;20048;-68
2023/01/21 13:11:38;;;;;;;21.92;11.85;;;;;;;;;;5061489;28;20058;-68
2023/01/21 13:14:07;;;;;;;21.27;11.55;;;;;;;;;;5053108;28;20517;-68
2023/01/21 13:16:42;;;;;;;21.60;10.93;;;;;;;;;;5064194;28;20041;-68
2023/01/21 13:19:10;;;;;;;23.27;11.48;;;;;;;;;;5061910;28;20112;-68
2023/01/21 13:22:02;;;;;;;19.42;11.05;;;;;;;;;;5068532;28;20482;-68
2023/01/21 13:24:28;;;;;;;;;;;;;;;;;;5073864;28;20402;-68
2023/01/21 13:27:00;;;;;;;20.35;11.18;;;;;;;;;;5072934;28;19940;-68
2023/01/21 13:29:35;;;;;;;23.67;12.48;;;;;;;;;;5072717;28;20511;-68
2023/01/21 13:32:19;;;;;;;23.25;12.63;;;;;;;;;;5068877;28;20102;-68
2023/01/21 13:34:54;;;;;;;24.13;13.07;;;;;;;;;;5061037;28;20120;-68
2023/01/21 13:37:33;;;;;;;29.55;13.73;;;;;;;;;;5067065;28;20518;-68
2023/01/21 13:40:14;;;;;;;24.88;12.95;;;;;;;;;;5072609;28;20055;-68
2023/01/21 13:42:47;;;;;;;25.73;13.17;;;;;;;;;;5063458;28;20041;-68
2023/01/21 13:45:32;;;;;;;26.02;14.02;;;;;;;;;;5052001;28;20275;-68
2023/01/21 13:48:16;;;;;;;22.83;13.02;;;;;;;;;;5054994;28;20048;-68
2023/01/21 13:51:01;;;;;;;25.52;14.05;;;;;;;;;;5060919;28;20102;-68
2023/01/21 13:53:33;;;;;;;27.60;13.73;;;;;;;;;;5052506;28;20044;-68
2023/01/21 13:56:11;;;;;;;27.15;14.13;;;;;;;;;;5059117;28;20073;-68
2023/01/21 13:58:56;;;;;;;29.17;14.75;;;;;;;;;;5061036;28;20040;-68
2023/01/21 14:01:43;;;;;;;27.60;14.02;;;;;;;;;;5052072;28;20052;-68
2023/01/21 14:04:11;;;;;;;24.70;13.23;;;;;;;;;;5058752;28;20522;-67
2023/01/21 14:06:45;;;;;;;28.60;14.18;;;;;;;;;;5057201;28;20048;-68
2023/01/21 14:09:15;;;;;;;28.40;13.75;;;;;;;;;;5061845;28;20045;-67
2023/01/21 14:11:47;;;;;;;26.48;13.95;;;;;;;;;;5063632;28;20371;-68
2023/01/21 14:14:36;;;;;;;29.02;15.02;;;;;;;;;;5061898;28;20481;-68
2023/01/21 14:17:02;;;;;;;26.60;13.85;;;;;;;;;;5071259;28;20039;-68
2023/01/21 14:19:33;;;;;;;27.50;14.57;;;;;;;;;;5059170;28;20040;-68
2023/01/21 14:22:11;;;;;;;26.65;13.75;;;;;;;;;;5056128;28;20507;-68
2023/01/21 14:24:52;;;;;;;27.40;14.27;;;;;;;;;;5059551;28;20075;-68
2023/01/21 14:27:24;;;;;;;24.45;13.23;;;;;;;;;;5051881;28;20125;-69
2023/01/21 14:29:53;;;;;;;25.15;14.20;;;;;;;;;;5070726;28;20452;-68
2023/01/21 14:32:33;;;;;;;23.77;13.77;;;;;;;;;;5063372;28;20036;-68
2023/01/21 14:35:14;;;;;;;21.10;11.43;;;;;;;;;;5066300;28;20037;-68
2023/01/21 14:37:40;;;;;;;22.00;11.35;;;;;;;;;;5059522;28;20033;-68